sensor_id;sensor_type;location;lat;lon;timestamp;temperature;humidity
7455;HTU21D;3769;51.208;4.454;2023-06-01T00:00:07;16;98.6
7455;HTU21D;3769;51.208;4.454;2023-06-01T00:05:07;16;98.6
7455;HTU21D;3769;51.208;4.454;2023-06-01T00:10:07;15.8;98.6
7455;HTU21D;3769;51.208;4.454;2023-06-01T00:15:07;15.8;98.6
7455;HTU21D;3769;51.208;4.454;2023-06-01T00:20:07;15.6;98.6
7455;HTU21D;3769;51.208;4.454;2023-06-01T00:25:07;15.5;98.6
7455;HTU21D;3769;51.208;4.454;2023-06-01T00:30:07;15.5;98.6
7455;HTU21D;3769;51.208;4.454;2023-06-01T00:35:07;15.4;98.6
7455;HTU21D;3769;51.208;4.454;2023-06-01T00:40:07;15.3;98.5
7455;HTU21D;3769;51.208;4.454;2023-06-01T00:45:07;15.2;98.5
7455;HTU21D;3769;51.208;4.454;2023-06-01T00:50:07;15.2;98.5
7455;HTU21D;3769;51.208;4.454;2023-06-01T00:55:07;15.1;98.5
7455;HTU21D;3769;51.208;4.454;2023-06-01T01:00:07;14.9;98.5
7455;HTU21D;3769;51.208;4.454;2023-06-01T01:05:07;15;98.5
7455;HTU21D;3769;51.208;4.454;2023-06-01T01:10:12;14.9;98.5
7455;HTU21D;3769;51.208;4.454;2023-06-01T01:15:08;15.1;98.5
7455;HTU21D;3769;51.208;4.454;2023-06-01T01:20:08;15;98.5
7455;HTU21D;3769;51.208;4.454;2023-06-01T01:26:18;14.8;98.5
7455;HTU21D;3769;51.208;4.454;2023-06-01T01:30:07;14.7;98.5
7455;HTU21D;3769;51.208;4.454;2023-06-01T01:35:07;14.8;98.5
7455;HTU21D;3769;51.208;4.454;2023-06-01T01:40:07;14.7;98.5
7455;HTU21D;3769;51.208;4.454;2023-06-01T01:45:07;14.6;98.4
7455;HTU21D;3769;51.208;4.454;2023-06-01T01:50:09;14.6;98.4
7455;HTU21D;3769;51.208;4.454;2023-06-01T01:55:08;14.5;98.4
7455;HTU21D;3769;51.208;4.454;2023-06-01T02:00:07;14.3;98.4
7455;HTU21D;3769;51.208;4.454;2023-06-01T02:05:07;14.3;98.4
7455;HTU21D;3769;51.208;4.454;2023-06-01T02:10:07;14.3;98.4
7455;HTU21D;3769;51.208;4.454;2023-06-01T02:15:07;14.3;98.4
7455;HTU21D;3769;51.208;4.454;2023-06-01T02:20:08;14.1;98.4
7455;HTU21D;3769;51.208;4.454;2023-06-01T02:25:07;14.1;98.4
7455;HTU21D;3769;51.208;4.454;2023-06-01T02:30:07;14.1;98.4
7455;HTU21D;3769;51.208;4.454;2023-06-01T02:35:07;14;98.3
7455;HTU21D;3769;51.208;4.454;2023-06-01T02:40:07;14;98.4
7455;HTU21D;3769;51.208;4.454;2023-06-01T02:45:07;13.8;98.3
7455;HTU21D;3769;51.208;4.454;2023-06-01T02:50:07;13.8;98.3
7455;HTU21D;3769;51.208;4.454;2023-06-01T02:55:07;13.8;98.3
7455;HTU21D;3769;51.208;4.454;2023-06-01T03:00:07;13.8;98.3
7455;HTU21D;3769;51.208;4.454;2023-06-01T03:05:07;13.6;98.3
7455;HTU21D;3769;51.208;4.454;2023-06-01T03:10:07;13.7;98.3
7455;HTU21D;3769;51.208;4.454;2023-06-01T03:15:07;13.7;98.3
7455;HTU21D;3769;51.208;4.454;2023-06-01T03:20:07;13.6;98.3
7455;HTU21D;3769;51.208;4.454;2023-06-01T03:25:07;13.5;98.3
7455;HTU21D;3769;51.208;4.454;2023-06-01T03:30:07;13.6;98.3
7455;HTU21D;3769;51.208;4.454;2023-06-01T03:35:07;13.5;98.3
7455;HTU21D;3769;51.208;4.454;2023-06-01T03:40:07;13.4;98.3
7455;HTU21D;3769;51.208;4.454;2023-06-01T03:45:08;13.5;98.3
7455;HTU21D;3769;51.208;4.454;2023-06-01T03:50:07;13.3;98.2
7455;HTU21D;3769;51.208;4.454;2023-06-01T03:55:07;13.4;98.3
7455;HTU21D;3769;51.208;4.454;2023-06-01T04:00:07;13.5;98.3
7455;HTU21D;3769;51.208;4.454;2023-06-01T04:05:07;13.2;98.2
7455;HTU21D;3769;51.208;4.454;2023-06-01T04:10:07;13.5;98.3
7455;HTU21D;3769;51.208;4.454;2023-06-01T04:15:07;13.5;98.3
7455;HTU21D;3769;51.208;4.454;2023-06-01T04:20:08;13.5;98.3
7455;HTU21D;3769;51.208;4.454;2023-06-01T04:25:08;13.4;98.3
7455;HTU21D;3769;51.208;4.454;2023-06-01T04:30:07;13.3;98.2
7455;HTU21D;3769;51.208;4.454;2023-06-01T04:35:07;13.2;98.2
7455;HTU21D;3769;51.208;4.454;2023-06-01T04:40:08;13.2;98.2
7455;HTU21D;3769;51.208;4.454;2023-06-01T04:45:08;13.3;98.3
7455;HTU21D;3769;51.208;4.454;2023-06-01T04:50:07;13.3;98.3
7455;HTU21D;3769;51.208;4.454;2023-06-01T04:55:08;13.5;98.3
7455;HTU21D;3769;51.208;4.454;2023-06-01T05:00:07;13.5;98.3
7455;HTU21D;3769;51.208;4.454;2023-06-01T05:05:07;13.3;98.2
7455;HTU21D;3769;51.208;4.454;2023-06-01T05:10:08;13.3;98.2
7455;HTU21D;3769;51.208;4.454;2023-06-01T05:15:07;13.3;98.2
7455;HTU21D;3769;51.208;4.454;2023-06-01T05:20:07;13.4;98.3
7455;HTU21D;3769;51.208;4.454;2023-06-01T05:25:07;13.4;98.3
7455;HTU21D;3769;51.208;4.454;2023-06-01T05:30:07;13.2;98.2
7455;HTU21D;3769;51.208;4.454;2023-06-01T05:35:07;13.3;98.3
7455;HTU21D;3769;51.208;4.454;2023-06-01T05:40:07;13.2;98.2
7455;HTU21D;3769;51.208;4.454;2023-06-01T05:45:08;13.4;98.3
7455;HTU21D;3769;51.208;4.454;2023-06-01T05:50:07;13.6;98.3
7455;HTU21D;3769;51.208;4.454;2023-06-01T05:55:07;13.7;98.3
7455;HTU21D;3769;51.208;4.454;2023-06-01T06:00:07;13.8;98.3
7455;HTU21D;3769;51.208;4.454;2023-06-01T06:05:07;14;98.3
7455;HTU21D;3769;51.208;4.454;2023-06-01T06:10:07;13.8;98.3
7455;HTU21D;3769;51.208;4.454;2023-06-01T06:15:07;13.8;98.3
7455;HTU21D;3769;51.208;4.454;2023-06-01T06:20:07;13.9;98.3
7455;HTU21D;3769;51.208;4.454;2023-06-01T06:25:07;13.8;98.3
7455;HTU21D;3769;51.208;4.454;2023-06-01T06:30:07;14.2;98.4
7455;HTU21D;3769;51.208;4.454;2023-06-01T06:35:07;14.3;96.9
7455;HTU21D;3769;51.208;4.454;2023-06-01T06:40:07;14.1;94.6
7455;HTU21D;3769;51.208;4.454;2023-06-01T06:45:07;14.1;98.4
7455;HTU21D;3769;51.208;4.454;2023-06-01T06:50:07;14.1;98.4
7455;HTU21D;3769;51.208;4.454;2023-06-01T06:55:07;14.2;97.4
7455;HTU21D;3769;51.208;4.454;2023-06-01T07:00:07;14.4;97.8
7455;HTU21D;3769;51.208;4.454;2023-06-01T07:05:07;14.4;94.3
7455;HTU21D;3769;51.208;4.454;2023-06-01T07:10:07;14.3;95.4
7455;HTU21D;3769;51.208;4.454;2023-06-01T07:15:07;14.2;96.6
7455;HTU21D;3769;51.208;4.454;2023-06-01T07:20:07;14.4;94.9
7455;HTU21D;3769;51.208;4.454;2023-06-01T07:25:08;14.5;90.2
7455;HTU21D;3769;51.208;4.454;2023-06-01T07:30:07;14.4;90.4
7455;HTU21D;3769;51.208;4.454;2023-06-01T07:35:08;14.6;86.1
7455;HTU21D;3769;51.208;4.454;2023-06-01T07:40:07;14.8;85.4
7455;HTU21D;3769;51.208;4.454;2023-06-01T07:45:07;14.9;86.1
7455;HTU21D;3769;51.208;4.454;2023-06-01T07:50:07;14.8;81.4
7455;HTU21D;3769;51.208;4.454;2023-06-01T07:55:07;15;81.1
7455;HTU21D;3769;51.208;4.454;2023-06-01T08:00:07;14.9;86.6
7455;HTU21D;3769;51.208;4.454;2023-06-01T08:05:07;15.1;80.6
7455;HTU21D;3769;51.208;4.454;2023-06-01T08:10:07;15.1;81.2
7455;HTU21D;3769;51.208;4.454;2023-06-01T08:15:07;15.3;78.1
7455;HTU21D;3769;51.208;4.454;2023-06-01T08:20:07;15;82.8
7455;HTU21D;3769;51.208;4.454;2023-06-01T08:25:07;15.2;83.2
7455;HTU21D;3769;51.208;4.454;2023-06-01T08:30:07;15.5;80
7455;HTU21D;3769;51.208;4.454;2023-06-01T08:35:07;15.5;78.7
7455;HTU21D;3769;51.208;4.454;2023-06-01T08:40:07;15.8;75.9
7455;HTU21D;3769;51.208;4.454;2023-06-01T08:45:07;16;74.6
7455;HTU21D;3769;51.208;4.454;2023-06-01T08:50:08;16.1;69.6
7455;HTU21D;3769;51.208;4.454;2023-06-01T08:55:07;16.1;71
7455;HTU21D;3769;51.208;4.454;2023-06-01T09:00:08;16.1;72.9
7455;HTU21D;3769;51.208;4.454;2023-06-01T09:05:07;16.1;73.1
7455;HTU21D;3769;51.208;4.454;2023-06-01T09:10:07;16.4;70
7455;HTU21D;3769;51.208;4.454;2023-06-01T09:15:08;16.5;69.4
7455;HTU21D;3769;51.208;4.454;2023-06-01T09:20:12;16.6;67.8
7455;HTU21D;3769;51.208;4.454;2023-06-01T09:25:07;16.6;68.3
7455;HTU21D;3769;51.208;4.454;2023-06-01T09:30:07;16.5;64.3
7455;HTU21D;3769;51.208;4.454;2023-06-01T09:35:07;16.6;67.2
7455;HTU21D;3769;51.208;4.454;2023-06-01T09:40:23;16.9;66.1
7455;HTU21D;3769;51.208;4.454;2023-06-01T09:45:15;16.9;65.8
7455;HTU21D;3769;51.208;4.454;2023-06-01T09:50:07;16.9;63.8
7455;HTU21D;3769;51.208;4.454;2023-06-01T09:55:07;16.9;60
7455;HTU21D;3769;51.208;4.454;2023-06-01T10:00:07;17.2;61
7455;HTU21D;3769;51.208;4.454;2023-06-01T10:05:07;17.2;61
7455;HTU21D;3769;51.208;4.454;2023-06-01T10:10:07;17;58.2
7455;HTU21D;3769;51.208;4.454;2023-06-01T10:15:07;17.2;60.4
7455;HTU21D;3769;51.208;4.454;2023-06-01T10:20:07;17.5;57
7455;HTU21D;3769;51.208;4.454;2023-06-01T10:25:07;17.6;57.7
7455;HTU21D;3769;51.208;4.454;2023-06-01T10:30:08;17.5;57.7
7455;HTU21D;3769;51.208;4.454;2023-06-01T10:35:07;17.6;57.8
7455;HTU21D;3769;51.208;4.454;2023-06-01T10:40:22;17.8;57.1
7455;HTU21D;3769;51.208;4.454;2023-06-01T10:45:07;18;54
7455;HTU21D;3769;51.208;4.454;2023-06-01T10:50:07;18.1;50.9
7455;HTU21D;3769;51.208;4.454;2023-06-01T10:55:24;18.1;55.4
7455;HTU21D;3769;51.208;4.454;2023-06-01T11:00:10;18.1;54
7455;HTU21D;3769;51.208;4.454;2023-06-01T11:05:32;18.3;55.8
7455;HTU21D;3769;51.208;4.454;2023-06-01T11:10:07;18.6;55.7
7455;HTU21D;3769;51.208;4.454;2023-06-01T11:15:07;18.7;53.2
7455;HTU21D;3769;51.208;4.454;2023-06-01T11:20:07;18.7;53.6
7455;HTU21D;3769;51.208;4.454;2023-06-01T11:25:07;18.7;53.3
7455;HTU21D;3769;51.208;4.454;2023-06-01T11:30:07;18.7;53
7455;HTU21D;3769;51.208;4.454;2023-06-01T11:35:15;18.9;56.6
7455;HTU21D;3769;51.208;4.454;2023-06-01T11:40:07;19;49.1
7455;HTU21D;3769;51.208;4.454;2023-06-01T11:45:07;19.3;46.8
7455;HTU21D;3769;51.208;4.454;2023-06-01T11:50:09;19.5;52.4
7455;HTU21D;3769;51.208;4.454;2023-06-01T11:55:07;19.6;47.3
7455;HTU21D;3769;51.208;4.454;2023-06-01T12:00:10;19.6;49.3
7455;HTU21D;3769;51.208;4.454;2023-06-01T12:05:07;19.5;47.2
7455;HTU21D;3769;51.208;4.454;2023-06-01T12:10:07;20;44.4
7455;HTU21D;3769;51.208;4.454;2023-06-01T12:15:07;20.3;39.5
7455;HTU21D;3769;51.208;4.454;2023-06-01T12:20:07;20.5;38.1
7455;HTU21D;3769;51.208;4.454;2023-06-01T12:25:07;21;36.4
7455;HTU21D;3769;51.208;4.454;2023-06-01T12:30:19;20.9;34.6
7455;HTU21D;3769;51.208;4.454;2023-06-01T12:35:07;21.2;30.9
7455;HTU21D;3769;51.208;4.454;2023-06-01T12:40:07;23.1;16.7
7455;HTU21D;3769;51.208;4.454;2023-06-01T12:45:07;28.1;0.5
7455;HTU21D;3769;51.208;4.454;2023-06-01T12:50:08;31.1;7.5
7455;HTU21D;3769;51.208;4.454;2023-06-01T12:55:07;33.4;13.4
7455;HTU21D;3769;51.208;4.454;2023-06-01T13:00:07;34.2;12.9
7455;HTU21D;3769;51.208;4.454;2023-06-01T13:05:07;35.5;12
7455;HTU21D;3769;51.208;4.454;2023-06-01T13:10:07;37.4;10.6
7455;HTU21D;3769;51.208;4.454;2023-06-01T13:15:07;37.8;9.9
7455;HTU21D;3769;51.208;4.454;2023-06-01T13:20:07;38.6;10.2
7455;HTU21D;3769;51.208;4.454;2023-06-01T13:25:07;38.5;10.1
7455;HTU21D;3769;51.208;4.454;2023-06-01T13:30:07;38.7;10.3
7455;HTU21D;3769;51.208;4.454;2023-06-01T13:35:07;39.6;10
7455;HTU21D;3769;51.208;4.454;2023-06-01T13:40:07;40.3;8.4
7455;HTU21D;3769;51.208;4.454;2023-06-01T13:45:07;40.4;8.7
7455;HTU21D;3769;51.208;4.454;2023-06-01T13:50:07;40.4;9.3
7455;HTU21D;3769;51.208;4.454;2023-06-01T13:55:08;37.1;11.5
7455;HTU21D;3769;51.208;4.454;2023-06-01T14:00:07;36.9;12.1
7455;HTU21D;3769;51.208;4.454;2023-06-01T14:05:07;37.6;11.9
7455;HTU21D;3769;51.208;4.454;2023-06-01T14:10:07;38.5;11.6
7455;HTU21D;3769;51.208;4.454;2023-06-01T14:15:07;38.8;10.7
7455;HTU21D;3769;51.208;4.454;2023-06-01T14:20:07;36.6;12.2
7455;HTU21D;3769;51.208;4.454;2023-06-01T14:25:07;36.2;13
7455;HTU21D;3769;51.208;4.454;2023-06-01T14:30:07;34.4;14.3
7455;HTU21D;3769;51.208;4.454;2023-06-01T14:35:07;31.1;17.5
7455;HTU21D;3769;51.208;4.454;2023-06-01T14:40:07;28.9;15.5
7455;HTU21D;3769;51.208;4.454;2023-06-01T14:45:07;27.1;10.4
7455;HTU21D;3769;51.208;4.454;2023-06-01T14:50:08;26.7;12.9
7455;HTU21D;3769;51.208;4.454;2023-06-01T14:55:07;25.6;11.2
7455;HTU21D;3769;51.208;4.454;2023-06-01T15:00:07;24.8;14.6
7455;HTU21D;3769;51.208;4.454;2023-06-01T15:05:07;24;17.4
7455;HTU21D;3769;51.208;4.454;2023-06-01T15:10:07;23.4;18
7455;HTU21D;3769;51.208;4.454;2023-06-01T15:15:07;23.1;18.1
7455;HTU21D;3769;51.208;4.454;2023-06-01T15:20:07;22.8;19.2
7455;HTU21D;3769;51.208;4.454;2023-06-01T15:25:07;22.6;20.2
7455;HTU21D;3769;51.208;4.454;2023-06-01T15:30:07;22.6;19.6
7455;HTU21D;3769;51.208;4.454;2023-06-01T15:35:07;22.5;20.3
7455;HTU21D;3769;51.208;4.454;2023-06-01T15:40:15;22.3;21.1
7455;HTU21D;3769;51.208;4.454;2023-06-01T15:45:07;22.4;20.8
7455;HTU21D;3769;51.208;4.454;2023-06-01T15:50:07;22.1;21.3
7455;HTU21D;3769;51.208;4.454;2023-06-01T15:55:07;22.3;22.2
7455;HTU21D;3769;51.208;4.454;2023-06-01T16:00:08;22.2;22.6
7455;HTU21D;3769;51.208;4.454;2023-06-01T16:05:08;21.9;21.2
7455;HTU21D;3769;51.208;4.454;2023-06-01T16:10:07;21.6;21.9
7455;HTU21D;3769;51.208;4.454;2023-06-01T16:15:07;21.6;22.6
7455;HTU21D;3769;51.208;4.454;2023-06-01T16:20:07;21.3;23.6
7455;HTU21D;3769;51.208;4.454;2023-06-01T16:25:08;21.5;24.2
7455;HTU21D;3769;51.208;4.454;2023-06-01T16:30:07;21.3;23.7
7455;HTU21D;3769;51.208;4.454;2023-06-01T16:35:07;21.2;27.5
7455;HTU21D;3769;51.208;4.454;2023-06-01T16:40:07;21.2;34.5
7455;HTU21D;3769;51.208;4.454;2023-06-01T16:45:07;21.2;35.8
7455;HTU21D;3769;51.208;4.454;2023-06-01T16:50:07;21;38.1
7455;HTU21D;3769;51.208;4.454;2023-06-01T16:55:07;20.6;40.5
7455;HTU21D;3769;51.208;4.454;2023-06-01T17:00:08;20.6;43.6
7455;HTU21D;3769;51.208;4.454;2023-06-01T17:05:07;20.5;46.6
7455;HTU21D;3769;51.208;4.454;2023-06-01T17:10:07;20.4;46.9
7455;HTU21D;3769;51.208;4.454;2023-06-01T17:15:07;20.1;46.9
7455;HTU21D;3769;51.208;4.454;2023-06-01T17:20:07;20;48.3
7455;HTU21D;3769;51.208;4.454;2023-06-01T17:25:07;19.9;48.5
7455;HTU21D;3769;51.208;4.454;2023-06-01T17:30:08;19.7;49.8
7455;HTU21D;3769;51.208;4.454;2023-06-01T17:35:08;19.5;51.4
7455;HTU21D;3769;51.208;4.454;2023-06-01T17:40:08;19.3;53
7455;HTU21D;3769;51.208;4.454;2023-06-01T17:45:08;19.2;54.3
7455;HTU21D;3769;51.208;4.454;2023-06-01T17:50:07;19;55.7
7455;HTU21D;3769;51.208;4.454;2023-06-01T17:55:07;18.9;56.6
7455;HTU21D;3769;51.208;4.454;2023-06-01T18:00:08;18.9;57.4
7455;HTU21D;3769;51.208;4.454;2023-06-01T18:05:07;18.6;58.7
7455;HTU21D;3769;51.208;4.454;2023-06-01T18:10:07;18.4;58
7455;HTU21D;3769;51.208;4.454;2023-06-01T18:15:07;18.2;61.1
7455;HTU21D;3769;51.208;4.454;2023-06-01T18:20:08;18;61.4
7455;HTU21D;3769;51.208;4.454;2023-06-01T18:25:08;17.9;62
7455;HTU21D;3769;51.208;4.454;2023-06-01T18:30:07;17.7;63.4
7455;HTU21D;3769;51.208;4.454;2023-06-01T18:35:07;17.3;63.4
7455;HTU21D;3769;51.208;4.454;2023-06-01T18:40:08;17.1;64.3
7455;HTU21D;3769;51.208;4.454;2023-06-01T18:45:08;17.1;65.8
7455;HTU21D;3769;51.208;4.454;2023-06-01T18:50:08;17;66.9
7455;HTU21D;3769;51.208;4.454;2023-06-01T18:55:08;16.8;65.7
7455;HTU21D;3769;51.208;4.454;2023-06-01T19:00:07;16.8;65.1
7455;HTU21D;3769;51.208;4.454;2023-06-01T19:05:07;16.9;65.7
7455;HTU21D;3769;51.208;4.454;2023-06-01T19:10:09;16.9;65.5
7455;HTU21D;3769;51.208;4.454;2023-06-01T19:15:08;16.8;65.1
7455;HTU21D;3769;51.208;4.454;2023-06-01T19:20:10;17;63
7455;HTU21D;3769;51.208;4.454;2023-06-01T19:25:07;16.9;63.6
7455;HTU21D;3769;51.208;4.454;2023-06-01T19:30:07;16.8;64.4
7455;HTU21D;3769;51.208;4.454;2023-06-01T19:35:07;16.9;64.2
7455;HTU21D;3769;51.208;4.454;2023-06-01T19:40:08;16.7;64.2
7455;HTU21D;3769;51.208;4.454;2023-06-01T19:45:07;16.8;64.3
7455;HTU21D;3769;51.208;4.454;2023-06-01T19:50:16;16.8;63.9
7455;HTU21D;3769;51.208;4.454;2023-06-01T19:55:08;16.8;62.8
7455;HTU21D;3769;51.208;4.454;2023-06-01T20:00:07;16.7;64.3
7455;HTU21D;3769;51.208;4.454;2023-06-01T20:05:07;16.6;63
7455;HTU21D;3769;51.208;4.454;2023-06-01T20:10:15;16.6;63.7
7455;HTU21D;3769;51.208;4.454;2023-06-01T20:15:07;16.6;62.3
7455;HTU21D;3769;51.208;4.454;2023-06-01T20:20:07;16.3;62.6
7455;HTU21D;3769;51.208;4.454;2023-06-01T20:25:07;16.1;62.2
7455;HTU21D;3769;51.208;4.454;2023-06-01T20:30:26;16.1;62.7
7455;HTU21D;3769;51.208;4.454;2023-06-01T20:35:08;16;62.4
7455;HTU21D;3769;51.208;4.454;2023-06-01T20:40:10;16;61.1
7455;HTU21D;3769;51.208;4.454;2023-06-01T20:45:28;16;60.7
7455;HTU21D;3769;51.208;4.454;2023-06-01T20:50:08;15.9;62.8
7455;HTU21D;3769;51.208;4.454;2023-06-01T20:55:07;15.8;63.4
7455;HTU21D;3769;51.208;4.454;2023-06-01T21:00:08;15.7;64.6
7455;HTU21D;3769;51.208;4.454;2023-06-01T21:05:08;15.9;64.5
7455;HTU21D;3769;51.208;4.454;2023-06-01T21:10:07;15.6;64.2
7455;HTU21D;3769;51.208;4.454;2023-06-01T21:15:07;15.7;65
7455;HTU21D;3769;51.208;4.454;2023-06-01T21:20:08;15.5;64.2
7455;HTU21D;3769;51.208;4.454;2023-06-01T21:25:07;15.6;64.1
7455;HTU21D;3769;51.208;4.454;2023-06-01T21:30:08;15.7;63.8
7455;HTU21D;3769;51.208;4.454;2023-06-01T21:35:08;15.6;63.8
7455;HTU21D;3769;51.208;4.454;2023-06-01T21:40:07;15.4;65.4
7455;HTU21D;3769;51.208;4.454;2023-06-01T21:45:08;15.3;65.5
7455;HTU21D;3769;51.208;4.454;2023-06-01T21:50:07;15.1;65.2
7455;HTU21D;3769;51.208;4.454;2023-06-01T21:55:07;15;65.4
7455;HTU21D;3769;51.208;4.454;2023-06-01T22:00:08;15.1;62.9
7455;HTU21D;3769;51.208;4.454;2023-06-01T22:05:07;15;63.4
7455;HTU21D;3769;51.208;4.454;2023-06-01T22:10:08;14.8;62.4
7455;HTU21D;3769;51.208;4.454;2023-06-01T22:15:08;14.8;63.9
7455;HTU21D;3769;51.208;4.454;2023-06-01T22:20:08;14.8;64.1
7455;HTU21D;3769;51.208;4.454;2023-06-01T22:25:07;14.8;63.9
7455;HTU21D;3769;51.208;4.454;2023-06-01T22:30:08;14.9;63.2
7455;HTU21D;3769;51.208;4.454;2023-06-01T22:35:07;14.8;64
7455;HTU21D;3769;51.208;4.454;2023-06-01T22:40:08;14.8;63
7455;HTU21D;3769;51.208;4.454;2023-06-01T22:45:07;14.8;64.6
7455;HTU21D;3769;51.208;4.454;2023-06-01T22:50:07;14.7;64.4
7455;HTU21D;3769;51.208;4.454;2023-06-01T22:55:07;14.7;64.5
7455;HTU21D;3769;51.208;4.454;2023-06-01T23:00:08;14.8;65.5
7455;HTU21D;3769;51.208;4.454;2023-06-01T23:05:07;14.7;65.8
7455;HTU21D;3769;51.208;4.454;2023-06-01T23:10:08;14.7;65.6
7455;HTU21D;3769;51.208;4.454;2023-06-01T23:15:08;14.7;65.7
7455;HTU21D;3769;51.208;4.454;2023-06-01T23:20:08;14.7;65.4
7455;HTU21D;3769;51.208;4.454;2023-06-01T23:25:08;14.8;65.7
7455;HTU21D;3769;51.208;4.454;2023-06-01T23:30:08;14.8;65.8
7455;HTU21D;3769;51.208;4.454;2023-06-01T23:35:08;14.6;66.7
7455;HTU21D;3769;51.208;4.454;2023-06-01T23:40:08;14.9;65.2
7455;HTU21D;3769;51.208;4.454;2023-06-01T23:45:08;14.7;66.1
7455;HTU21D;3769;51.208;4.454;2023-06-01T23:50:07;14.7;66.2
7455;HTU21D;3769;51.208;4.454;2023-06-01T23:55:08;14.5;68.1
